Time;durP1;ratioP1;P1;durP2;ratioP2;P2;SDS_P1;SDS_P2;PMS_P1;PMS_P2;Temp;Humidity;BMP_temperature;BMP_pressure;BME280_temperature;BME280_humidity;BME280_pressure;Samples;Min_cycle;Max_cycle;Signal;HPM_P1;HPM_P2
2022/09/18 00:00:43;;;;;;;4.93;1.20;;;9.00;99.90;;;;;;5091779;28;20024;-76
2022/09/18 00:03:09;;;;;;;5.18;1.50;;;9.00;99.90;;;;;;5093332;28;20468;-76
2022/09/18 00:05:36;;;;;;;11.25;1.45;;;9.00;99.90;;;;;;5092548;28;20114;-76
2022/09/18 00:08:02;;;;;;;9.13;1.38;;;9.00;99.90;;;;;;5089287;28;20381;-75
2022/09/18 00:10:28;;;;;;;4.90;1.23;;;9.10;99.90;;;;;;5092294;28;20024;-73
2022/09/18 00:12:54;;;;;;;5.47;1.00;;;9.10;99.90;;;;;;5075322;28;20025;-76
2022/09/18 00:15:19;;;;;;;4.70;1.17;;;9.10;99.90;;;;;;5093366;28;20032;-75
2022/09/18 00:17:45;;;;;;;8.35;1.20;;;9.00;99.90;;;;;;5092300;28;20760;-75
2022/09/18 00:20:11;;;;;;;6.47;1.33;;;9.10;99.90;;;;;;5093183;28;20085;-75
2022/09/18 00:22:36;;;;;;;9.95;1.30;;;9.10;99.90;;;;;;5092199;28;20089;-75
2022/09/18 00:25:02;;;;;;;6.22;1.33;;;9.10;99.90;;;;;;5090497;28;20036;-76
2022/09/18 00:27:28;;;;;;;6.22;1.38;;;9.10;99.90;;;;;;5080298;28;20111;-75
2022/09/18 00:29:53;;;;;;;5.20;1.67;;;9.20;99.90;;;;;;5092708;28;20091;-76
2022/09/18 00:32:19;;;;;;;5.55;1.30;;;9.20;99.90;;;;;;5082591;28;20035;-76
2022/09/18 00:34:44;;;;;;;8.70;1.50;;;9.10;99.90;;;;;;5090603;28;20085;-76
2022/09/18 00:37:10;;;;;;;7.85;1.20;;;9.20;99.90;;;;;;5088653;28;20032;-76
2022/09/18 00:39:36;;;;;;;7.07;1.05;;;9.10;99.90;;;;;;5091039;28;20028;-75
2022/09/18 00:42:01;;;;;;;7.10;1.70;;;9.10;99.90;;;;;;5092695;28;20028;-76
2022/09/18 00:44:34;;;;;;;6.03;1.33;;;9.10;99.90;;;;;;5092293;28;20023;-72
2022/09/18 00:47:12;;;;;;;3.67;1.13;;;9.10;99.90;;;;;;5089940;28;20048;-75
2022/09/18 00:49:41;;;;;;;6.93;1.48;;;9.10;99.90;;;;;;5071410;28;20028;-75
2022/09/18 00:52:08;;;;;;;3.90;1.13;;;9.10;99.90;;;;;;5072457;28;20021;-75
2022/09/18 00:54:39;;;;;;;3.45;1.00;;;9.10;99.90;;;;;;5071521;28;20025;-75
2022/09/18 00:57:09;;;;;;;5.03;1.40;;;9.10;99.90;;;;;;5058136;28;20028;-76
2022/09/18 00:59:36;;;;;;;4.57;1.30;;;9.10;99.90;;;;;;5052031;28;20119;-75
2022/09/18 01:02:03;;;;;;;4.25;1.10;;;9.00;99.90;;;;;;5067131;28;20282;-75
2022/09/18 01:04:29;;;;;;;5.88;1.60;;;9.00;99.90;;;;;;5071044;28;20067;-74
2022/09/18 01:07:09;;;;;;;6.15;1.20;;;9.00;99.90;;;;;;5071978;28;20076;-75
2022/09/18 01:09:47;;;;;;;6.32;1.50;;;9.00;99.90;;;;;;5071377;28;20522;-75
2022/09/18 01:12:40;;;;;;;6.88;1.55;;;9.00;99.90;;;;;;5063441;28;20028;-75
2022/09/18 01:15:36;;;;;;;8.45;1.50;;;9.10;99.90;;;;;;5071661;28;20036;-76
2022/09/18 01:18:33;;;;;;;5.10;1.75;;;9.10;99.90;;;;;;5071987;28;20055;-76
2022/09/18 01:21:14;;;;;;;3.85;0.90;;;9.00;99.90;;;;;;5071522;28;20496;-76
2022/09/18 01:24:17;;;;;;;10.10;1.60;;;9.10;99.90;;;;;;5071057;28;20021;-76
2022/09/18 01:26:54;;;;;;;14.18;1.63;;;9.20;99.90;;;;;;5070888;28;20354;-76
2022/09/18 01:29:26;;;;;;;10.10;2.00;;;9.20;99.90;;;;;;5066504;28;20029;-75
2022/09/18 01:32:12;;;;;;;6.07;1.55;;;9.20;99.90;;;;;;5065594;28;20031;-76
2022/09/18 01:34:58;;;;;;;6.90;1.42;;;9.30;99.90;;;;;;5066381;28;20036;-75
2022/09/18 01:37:43;;;;;;;9.95;1.42;;;9.40;99.90;;;;;;5063349;28;20055;-73
2022/09/18 01:40:09;;;;;;;5.10;1.15;;;9.40;99.90;;;;;;5081293;28;20473;-76
2022/09/18 01:42:36;;;;;;;4.25;1.00;;;9.30;99.90;;;;;;5070294;28;20031;-75
2022/09/18 01:45:07;;;;;;;4.30;1.00;;;9.30;99.90;;;;;;5071687;28;20474;-75
2022/09/18 01:47:49;;;;;;;6.18;1.00;;;9.20;99.90;;;;;;5090432;28;20393;-75
2022/09/18 01:50:16;;;;;;;5.53;1.15;;;9.20;99.90;;;;;;5071701;28;20051;-75
2022/09/18 01:52:47;;;;;;;6.50;1.20;;;9.20;99.90;;;;;;5070680;28;20025;-74
2022/09/18 01:55:19;;;;;;;8.27;1.85;;;9.10;99.90;;;;;;5071407;28;20036;-76
2022/09/18 01:57:56;;;;;;;7.15;1.05;;;9.10;99.90;;;;;;5070832;28;20511;-76
2022/09/18 02:00:24;;;;;;;6.50;1.30;;;9.10;99.90;;;;;;5080991;28;20060;-76
2022/09/18 02:02:57;;;;;;;5.75;1.08;;;9.10;99.90;;;;;;5090993;28;20036;-75
2022/09/18 02:05:37;;;;;;;4.85;1.20;;;9.10;99.90;;;;;;5091543;28;20024;-75
2022/09/18 02:08:28;;;;;;;4.70;1.05;;;9.10;99.90;;;;;;5091817;28;20017;-76
2022/09/18 02:11:07;;;;;;;4.93;1.17;;;9.00;99.90;;;;;;5091671;28;20016;-76
2022/09/18 02:13:57;;;;;;;5.05;1.15;;;9.10;99.90;;;;;;5090682;28;20035;-75
2022/09/18 02:16:29;;;;;;;;;;;9.00;99.90;;;;;;5088556;28;20089;-75
2022/09/18 02:18:59;;;;;;;9.40;1.45;;;9.00;99.90;;;;;;5073378;28;20353;-75
2022/09/18 02:21:29;;;;;;;7.18;1.10;;;9.00;99.90;;;;;;5091100;28;20028;-72
2022/09/18 02:24:03;;;;;;;5.32;1.40;;;9.00;99.90;;;;;;5091559;28;20043;-74
2022/09/18 02:26:31;;;;;;;4.90;1.17;;;9.00;99.90;;;;;;5072221;28;20403;-75
2022/09/18 02:28:57;;;;;;;4.55;0.98;;;9.00;99.90;;;;;;5091392;28;20113;-77
2022/09/18 02:31:23;;;;;;;4.82;1.00;;;9.00;99.90;;;;;;5075339;28;20032;-75
2022/09/18 02:33:49;;;;;;;5.00;0.98;;;9.00;99.90;;;;;;5087260;28;20575;-77
2022/09/18 02:36:48;;;;;;;6.72;1.00;;;9.00;99.90;;;;;;5090885;28;20373;-74
2022/09/18 02:39:31;;;;;;;3.15;0.93;;;9.00;99.90;;;;;;5081115;28;20465;-75
2022/09/18 02:42:21;;;;;;;4.40;0.98;;;9.00;99.90;;;;;;5075949;28;20028;-75
2022/09/18 02:44:55;;;;;;;4.37;1.20;;;9.00;99.90;;;;;;5078279;28;20311;-75
2022/09/18 02:47:47;;;;;;;3.28;0.80;;;9.10;99.90;;;;;;5087572;28;20123;-75
2022/09/18 02:50:55;;;;;;;5.90;1.48;;;9.10;99.90;;;;;;5091467;28;20028;-75
2022/09/18 02:53:43;;;;;;;4.53;1.00;;;9.10;99.90;;;;;;5069595;28;20032;-76
2022/09/18 02:56:27;;;;;;;5.50;1.20;;;9.10;99.90;;;;;;5091184;28;20028;-77
2022/09/18 02:59:17;;;;;;;8.30;1.30;;;9.10;99.90;;;;;;5092284;28;20024;-76
2022/09/18 03:01:44;;;;;;;3.83;1.00;;;9.10;99.90;;;;;;5092509;28;20074;-75
2022/09/18 03:04:12;;;;;;;3.47;1.10;;;9.10;99.90;;;;;;5091743;28;20036;-75
2022/09/18 03:06:38;;;;;;;4.20;0.90;;;9.00;99.90;;;;;;5092632;28;20016;-74
2022/09/18 03:09:04;;;;;;;5.10;1.10;;;9.00;99.90;;;;;;5093105;28;20031;-75
2022/09/18 03:11:29;;;;;;;5.53;1.23;;;9.00;99.90;;;;;;5093739;28;20024;-74
2022/09/18 03:13:55;;;;;;;3.92;1.52;;;9.00;99.90;;;;;;5094110;28;20060;-74
2022/09/18 03:16:21;;;;;;;4.75;0.88;;;9.00;99.90;;;;;;5094421;28;20043;-74
2022/09/18 03:18:46;;;;;;;2.08;0.80;;;9.00;99.90;;;;;;5093465;28;20035;-75
2022/09/18 03:21:12;;;;;;;3.15;1.40;;;8.90;99.90;;;;;;5089000;28;20021;-74
2022/09/18 03:23:37;;;;;;;3.03;0.90;;;8.90;99.90;;;;;;5092352;28;20036;-74
2022/09/18 03:26:03;;;;;;;3.33;0.98;;;8.90;99.90;;;;;;5093684;28;20024;-74
2022/09/18 03:28:32;;;;;;;5.05;1.10;;;8.80;99.90;;;;;;5092650;28;20702;-72
2022/09/18 03:30:57;;;;;;;7.68;1.52;;;8.80;99.90;;;;;;5092420;28;20024;-74
2022/09/18 03:33:23;;;;;;;4.00;0.98;;;8.80;99.90;;;;;;5087117;28;20465;-74
2022/09/18 03:35:48;;;;;;;5.00;1.17;;;8.80;99.90;;;;;;5083189;28;20043;-75
2022/09/18 03:38:14;;;;;;;3.17;0.65;;;8.70;99.90;;;;;;5093936;28;20105;-75
2022/09/18 03:40:46;;;;;;;3.30;1.25;;;8.80;99.90;;;;;;5092802;28;20496;-74
2022/09/18 03:43:12;;;;;;;2.45;1.08;;;8.80;99.90;;;;;;5093945;28;20039;-75
2022/09/18 03:45:38;;;;;;;4.22;1.05;;;8.80;99.90;;;;;;5092730;28;20052;-75
2022/09/18 03:48:04;;;;;;;3.83;1.10;;;8.80;99.90;;;;;;5093577;28;20419;-76
2022/09/18 03:50:29;;;;;;;3.50;1.00;;;8.80;99.90;;;;;;5093097;28;20028;-75
2022/09/18 03:52:55;;;;;;;5.38;0.90;;;8.80;99.90;;;;;;5081194;28;20044;-76
2022/09/18 03:55:21;;;;;;;5.00;1.02;;;8.80;99.90;;;;;;5073897;28;20025;-75
2022/09/18 03:57:48;;;;;;;2.65;1.00;;;8.80;99.90;;;;;;5073241;28;20058;-75
2022/09/18 04:00:14;;;;;;;1.92;0.85;;;8.80;99.90;;;;;;5055854;28;20043;-75
2022/09/18 04:02:40;;;;;;;3.30;0.90;;;8.80;99.90;;;;;;5080903;28;20036;-76
2022/09/18 04:05:06;;;;;;;1.58;1.20;;;8.80;99.90;;;;;;5081405;28;20044;-75
2022/09/18 04:07:32;;;;;;;6.05;1.05;;;8.80;99.90;;;;;;5094695;28;20031;-75
2022/09/18 04:09:57;;;;;;;4.13;1.05;;;8.90;99.90;;;;;;5084100;28;20107;-75
2022/09/18 04:12:23;;;;;;;1.85;0.90;;;8.90;99.90;;;;;;5097305;28;20767;-75
2022/09/18 04:14:49;;;;;;;4.93;0.93;;;8.90;99.90;;;;;;5094234;28;20032;-74
2022/09/18 04:17:15;;;;;;;5.05;0.95;;;8.90;99.90;;;;;;5092969;28;20027;-75
2022/09/18 04:19:41;;;;;;;2.72;1.00;;;8.90;99.90;;;;;;5089968;28;20379;-75
2022/09/18 04:22:07;;;;;;;4.65;1.00;;;8.80;99.90;;;;;;5077771;28;20020;-75
2022/09/18 04:24:34;;;;;;;3.63;1.08;;;8.80;99.90;;;;;;5091938;28;20028;-75
2022/09/18 04:26:59;;;;;;;2.83;0.93;;;8.80;99.90;;;;;;5092943;28;20021;-75
2022/09/18 04:29:25;;;;;;;3.58;1.75;;;8.80;99.90;;;;;;5093112;28;20039;-72
2022/09/18 04:31:51;;;;;;;5.10;0.85;;;8.80;99.90;;;;;;5077642;28;20029;-75
2022/09/18 04:34:16;;;;;;;2.58;1.00;;;8.70;99.90;;;;;;5092983;28;20063;-75
2022/09/18 04:36:42;;;;;;;4.70;1.67;;;8.80;99.90;;;;;;5091611;28;20032;-75
2022/09/18 04:39:07;;;;;;;2.13;0.95;;;8.80;99.90;;;;;;5087037;28;20111;-75
2022/09/18 04:41:33;;;;;;;4.15;1.40;;;8.80;99.90;;;;;;5091738;28;20373;-75
2022/09/18 04:43:59;;;;;;;2.10;0.95;;;8.80;99.90;;;;;;5092790;28;20031;-75
2022/09/18 04:46:24;;;;;;;5.13;1.25;;;8.80;99.90;;;;;;5092061;28;20048;-72
2022/09/18 04:48:50;;;;;;;3.13;1.63;;;8.80;99.90;;;;;;5089889;28;20028;-75
2022/09/18 04:51:16;;;;;;;1.65;1.02;;;8.80;99.90;;;;;;5090365;28;20027;-74
2022/09/18 04:53:41;;;;;;;2.45;1.00;;;8.80;99.90;;;;;;5089478;28;20065;-74
2022/09/18 04:56:07;;;;;;;2.72;0.80;;;8.80;99.90;;;;;;5086496;28;20032;-74
2022/09/18 04:58:33;;;;;;;1.30;0.90;;;8.90;99.90;;;;;;5089904;28;20036;-75
2022/09/18 05:00:58;;;;;;;5.97;1.02;;;8.90;99.90;;;;;;5085585;28;20521;-75
2022/09/18 05:03:24;;;;;;;5.05;1.17;;;8.90;99.90;;;;;;5090265;28;20028;-75
2022/09/18 05:05:50;;;;;;;2.28;1.08;;;8.90;99.90;;;;;;5089593;28;20020;-74
2022/09/18 05:08:15;;;;;;;3.90;0.82;;;8.90;99.90;;;;;;5072522;28;20020;-75
2022/09/18 05:10:42;;;;;;;4.18;0.98;;;8.90;99.90;;;;;;5087592;28;20388;-74
2022/09/18 05:13:07;;;;;;;3.33;1.00;;;8.90;99.90;;;;;;5088576;28;20508;-75
2022/09/18 05:15:33;;;;;;;3.22;1.23;;;8.90;99.90;;;;;;5089062;28;20118;-74
2022/09/18 05:18:05;;;;;;;4.10;1.10;;;8.90;99.90;;;;;;5089680;28;20020;-75
2022/09/18 05:20:33;;;;;;;3.60;1.27;;;8.90;99.90;;;;;;5088928;28;20031;-74
2022/09/18 05:22:59;;;;;;;2.70;1.42;;;9.00;99.90;;;;;;5086721;28;20116;-75
2022/09/18 05:25:27;;;;;;;4.57;1.58;;;9.00;99.90;;;;;;5087101;28;20099;-73
2022/09/18 05:27:58;;;;;;;3.50;1.58;;;9.00;99.90;;;;;;5089853;28;20063;-75
2022/09/18 05:30:24;;;;;;;2.05;1.10;;;9.00;99.90;;;;;;5088397;28;20024;-75
2022/09/18 05:32:57;;;;;;;5.40;1.23;;;9.00;99.90;;;;;;5086142;28;20092;-75
2022/09/18 05:35:24;;;;;;;5.43;1.67;;;9.00;99.90;;;;;;5084722;28;20028;-74
2022/09/18 05:37:51;;;;;;;3.83;1.10;;;9.00;99.90;;;;;;5087644;28;20024;-75
2022/09/18 05:40:18;;;;;;;3.80;1.33;;;9.00;99.90;;;;;;5089572;28;20081;-75
2022/09/18 05:42:47;;;;;;;3.20;1.20;;;9.10;99.90;;;;;;5089039;28;20016;-75
2022/09/18 05:45:14;;;;;;;6.18;1.48;;;9.00;99.90;;;;;;5086673;27;20128;-75
2022/09/18 05:47:40;;;;;;;4.05;1.38;;;9.00;99.90;;;;;;5069401;28;20073;-75
2022/09/18 05:50:06;;;;;;;2.72;1.23;;;8.90;99.90;;;;;;5068883;28;20143;-75
2022/09/18 05:52:32;;;;;;;1.75;1.10;;;8.90;99.90;;;;;;5067892;28;20415;-75
2022/09/18 05:54:58;;;;;;;4.68;1.90;;;8.90;99.90;;;;;;5069610;28;20055;-72
2022/09/18 05:57:24;;;;;;;4.75;1.40;;;8.90;99.90;;;;;;5069990;28;20382;-75
2022/09/18 05:59:49;;;;;;;6.28;1.85;;;8.90;99.90;;;;;;5067711;28;20052;-75
2022/09/18 06:02:15;;;;;;;4.78;1.38;;;8.90;99.90;;;;;;5069489;28;20102;-75
2022/09/18 06:04:40;;;;;;;2.33;1.00;;;9.00;99.90;;;;;;5068886;28;20038;-75
2022/09/18 06:07:06;;;;;;;6.30;1.50;;;8.90;99.90;;;;;;5068142;28;20441;-76
2022/09/18 06:09:32;;;;;;;6.43;1.83;;;8.90;99.90;;;;;;5068216;28;20033;-75
2022/09/18 06:11:57;;;;;;;2.17;1.02;;;8.90;99.90;;;;;;5069924;28;20384;-76
2022/09/18 06:14:23;;;;;;;2.08;1.10;;;9.00;99.90;;;;;;5070160;28;20032;-76
2022/09/18 06:16:49;;;;;;;3.88;1.80;;;9.00;99.90;;;;;;5069594;28;20028;-77
2022/09/18 06:19:14;;;;;;;1.98;1.35;;;9.00;99.90;;;;;;5070425;28;20078;-77
2022/09/18 06:21:40;;;;;;;4.13;1.45;;;9.00;99.90;;;;;;5069505;28;20094;-76
2022/09/18 06:24:06;;;;;;;3.15;1.20;;;9.00;99.90;;;;;;5070838;28;20567;-77
2022/09/18 06:26:32;;;;;;;3.15;1.23;;;9.00;99.90;;;;;;5070010;28;20032;-76
2022/09/18 06:28:57;;;;;;;3.15;1.48;;;9.00;99.90;;;;;;5068409;28;20388;-77
2022/09/18 06:31:23;;;;;;;5.72;1.63;;;9.00;99.90;;;;;;5068551;28;20564;-76
2022/09/18 06:33:48;;;;;;;4.90;1.33;;;9.00;99.90;;;;;;5070071;28;20040;-77
2022/09/18 06:36:15;;;;;;;5.03;1.40;;;9.00;99.90;;;;;;5074090;28;20021;-77
2022/09/18 06:38:41;;;;;;;6.38;1.50;;;9.00;99.90;;;;;;5072100;28;20032;-75
2022/09/18 06:41:07;;;;;;;3.75;1.63;;;9.00;99.90;;;;;;5074775;28;20073;-74
2022/09/18 06:43:34;;;;;;;4.45;1.60;;;9.10;99.90;;;;;;5078930;28;20064;-75
2022/09/18 06:45:59;;;;;;;2.90;1.30;;;9.10;99.90;;;;;;5074074;28;20733;-76
2022/09/18 06:48:25;;;;;;;6.10;1.52;;;9.10;99.90;;;;;;5090145;28;20085;-73
2022/09/18 06:50:55;;;;;;;5.95;1.50;;;9.10;99.90;;;;;;5092422;28;20024;-76
2022/09/18 06:53:21;;;;;;;;;;;9.10;99.90;;;;;;5088571;28;20020;-77
2022/09/18 06:55:47;;;;;;;4.03;1.63;;;9.20;99.90;;;;;;5088949;28;19992;-76
2022/09/18 06:58:15;;;;;;;2.78;1.67;;;9.20;99.90;;;;;;5084032;28;20029;-78
2022/09/18 07:00:41;;;;;;;3.65;1.50;;;9.30;99.90;;;;;;5085693;28;20033;-77
2022/09/18 07:03:08;;;;;;;6.75;2.00;;;9.30;99.90;;;;;;5092370;28;20119;-75
2022/09/18 07:05:37;;;;;;;6.40;1.80;;;9.30;99.90;;;;;;5085491;28;20028;-76
2022/09/18 07:08:02;;;;;;;7.38;1.60;;;9.30;99.90;;;;;;5086220;28;20016;-77
2022/09/18 07:10:28;;;;;;;8.43;2.05;;;9.40;99.90;;;;;;5091329;28;20544;-74
2022/09/18 07:12:58;;;;;;;2.70;1.83;;;9.40;99.90;;;;;;5094099;28;20485;-80
2022/09/18 07:15:25;;;;;;;3.17;1.67;;;9.50;99.90;;;;;;5089795;28;20438;-78
2022/09/18 07:17:54;;;;;;;2.67;1.70;;;9.60;99.90;;;;;;5073787;28;20028;-77
2022/09/18 07:20:19;;;;;;;4.65;2.17;;;9.70;99.90;;;;;;5075470;28;20050;-77
2022/09/18 07:22:52;;;;;;;3.20;1.67;;;9.80;99.90;;;;;;5092766;28;20621;-75
2022/09/18 07:25:17;;;;;;;3.22;1.67;;;9.80;99.90;;;;;;5090390;28;20044;-75
2022/09/18 07:27:43;;;;;;;2.35;1.23;;;9.90;99.90;;;;;;5086481;28;20035;-76
2022/09/18 07:30:09;;;;;;;3.35;1.65;;;9.90;99.90;;;;;;5089430;28;20111;-74
2022/09/18 07:32:35;;;;;;;2.95;1.58;;;9.90;99.90;;;;;;5089986;28;20389;-73
2022/09/18 07:35:00;;;;;;;6.35;1.63;;;9.90;99.90;;;;;;5092232;28;20035;-72
2022/09/18 07:37:26;;;;;;;6.72;1.70;;;9.90;99.90;;;;;;5087953;28;20059;-75
2022/09/18 07:39:52;;;;;;;3.53;1.60;;;10.00;99.90;;;;;;5091378;28;20496;-77
2022/09/18 07:42:18;;;;;;;4.00;1.50;;;10.00;99.90;;;;;;5085593;28;20424;-75
2022/09/18 07:44:43;;;;;;;4.82;1.65;;;10.00;99.90;;;;;;5095274;28;20024;-88
2022/09/18 07:47:10;;;;;;;5.50;1.73;;;10.10;99.90;;;;;;5074646;28;20494;-77
2022/09/18 07:49:37;;;;;;;3.78;1.52;;;10.20;99.90;;;;;;5072245;28;20094;-77
2022/09/18 07:52:03;;;;;;;8.75;1.70;;;10.20;99.90;;;;;;5073262;28;20052;-79
2022/09/18 07:54:30;;;;;;;5.88;1.38;;;10.20;99.90;;;;;;5071467;28;20398;-74
2022/09/18 07:56:55;;;;;;;4.25;1.75;;;10.30;99.90;;;;;;5084225;28;20043;-80
2022/09/18 07:59:21;;;;;;;5.15;1.20;;;10.30;99.90;;;;;;5078908;28;20024;-85
2022/09/18 08:01:47;;;;;;;2.40;1.35;;;10.50;99.90;;;;;;5080931;28;20020;-86
2022/09/18 08:04:13;;;;;;;3.20;1.05;;;10.60;99.90;;;;;;5089283;28;20028;-80
2022/09/18 08:06:38;;;;;;;3.13;1.10;;;10.70;99.90;;;;;;5080513;28;20038;-86
2022/09/18 08:09:04;;;;;;;3.05;1.15;;;10.80;99.90;;;;;;5093158;28;20097;-84
2022/09/18 08:11:30;;;;;;;5.57;0.85;;;10.90;99.90;;;;;;5088437;28;20127;-81
2022/09/18 08:13:55;;;;;;;3.20;1.10;;;10.90;99.90;;;;;;5093501;28;20059;-85
2022/09/18 08:16:21;;;;;;;3.85;1.02;;;11.00;99.90;;;;;;5080752;28;20035;-81
2022/09/18 08:18:47;;;;;;;5.88;1.27;;;11.10;99.90;;;;;;5072789;28;20117;-87
2022/09/18 08:21:13;;;;;;;3.92;0.93;;;11.10;99.90;;;;;;5076396;28;20025;-80
2022/09/18 08:23:39;;;;;;;3.92;1.08;;;11.10;99.90;;;;;;5078476;28;20403;-78
2022/09/18 08:26:04;;;;;;;3.25;1.63;;;11.10;99.90;;;;;;5089443;28;20024;-78
2022/09/18 08:28:30;;;;;;;3.70;1.15;;;11.10;99.90;;;;;;5089188;28;20033;-74
2022/09/18 08:30:56;;;;;;;3.75;1.40;;;11.10;99.90;;;;;;5090698;28;20081;-82
2022/09/18 08:33:22;;;;;;;3.75;1.40;;;11.10;99.90;;;;;;5091402;28;20032;-78
2022/09/18 08:35:48;;;;;;;5.40;1.30;;;11.10;99.90;;;;;;5084362;28;20033;-82
2022/09/18 08:38:14;;;;;;;3.13;0.82;;;11.10;99.90;;;;;;5072417;28;20035;-78
2022/09/18 08:40:46;;;;;;;3.10;0.95;;;11.10;99.90;;;;;;5083925;28;20020;-77
2022/09/18 08:43:26;;;;;;;4.68;0.95;;;11.20;99.90;;;;;;5089398;28;20020;-79
2022/09/18 08:46:01;;;;;;;3.45;1.10;;;11.30;99.90;;;;;;5085833;28;20044;-76
2022/09/18 08:48:32;;;;;;;1.58;0.85;;;11.30;99.90;;;;;;5082542;28;20162;-82
2022/09/18 08:51:15;;;;;;;4.63;1.10;;;11.30;99.90;;;;;;5084959;28;20024;-84
2022/09/18 08:53:46;;;;;;;3.17;1.05;;;11.50;99.90;;;;;;5076757;28;20087;-75
2022/09/18 08:56:17;;;;;;;2.30;0.97;;;11.60;99.90;;;;;;5073673;28;20027;-74
2022/09/18 08:58:56;;;;;;;2.90;1.13;;;11.70;99.90;;;;;;5081716;28;20017;-75
2022/09/18 09:01:29;;;;;;;5.97;1.15;;;11.70;99.90;;;;;;5093263;28;20071;-75
2022/09/18 09:04:19;;;;;;;5.38;1.02;;;11.90;99.90;;;;;;5092142;28;20078;-74
2022/09/18 09:07:16;;;;;;;2.97;1.15;;;11.90;99.90;;;;;;5083333;28;20031;-76
2022/09/18 09:10:10;;;;;;;3.75;1.40;;;11.90;99.90;;;;;;5086417;28;20051;-74
2022/09/18 09:13:05;;;;;;;4.28;1.80;;;11.80;99.90;;;;;;5084984;28;20059;-75
2022/09/18 09:15:48;;;;;;;7.05;1.40;;;11.80;99.90;;;;;;5086396;28;20460;-76
2022/09/18 09:18:17;;;;;;;6.88;1.65;;;11.70;99.90;;;;;;5087333;28;20028;-76
2022/09/18 09:20:56;;;;;;;3.10;0.88;;;11.70;99.90;;;;;;5092327;28;20051;-74
2022/09/18 09:23:36;;;;;;;3.78;1.65;;;11.70;99.90;;;;;;5090846;28;20044;-75
2022/09/18 09:26:17;;;;;;;5.00;1.37;;;11.70;99.90;;;;;;5095101;28;20104;-75
2022/09/18 09:29:01;;;;;;;6.45;1.50;;;11.70;99.90;;;;;;5091782;28;20105;-75
2022/09/18 09:31:38;;;;;;;3.88;1.23;;;11.70;99.90;;;;;;5092690;28;20036;-73
2022/09/18 09:34:12;;;;;;;5.55;1.60;;;11.70;99.90;;;;;;5089929;28;20032;-75
2022/09/18 09:36:41;;;;;;;2.65;1.42;;;11.80;99.90;;;;;;5079852;28;20388;-75
2022/09/18 09:39:31;;;;;;;3.10;1.40;;;11.80;99.90;;;;;;5095343;28;20165;-73
2022/09/18 09:42:22;;;;;;;3.28;1.52;;;11.80;99.90;;;;;;5089168;28;20409;-74
2022/09/18 09:45:07;;;;;;;5.38;1.65;;;11.90;99.90;;;;;;5077104;28;20105;-75
2022/09/18 09:47:59;;;;;;;5.07;1.50;;;11.90;99.90;;;;;;5084806;28;20182;-75
2022/09/18 09:50:56;;;;;;;1.60;0.90;;;11.90;99.90;;;;;;5096741;28;20083;-74
2022/09/18 09:53:24;;;;;;;3.25;1.60;;;12.00;99.90;;;;;;5094428;28;20024;-74
2022/09/18 09:56:05;;;;;;;3.45;1.30;;;12.10;99.90;;;;;;5085322;28;20036;-73
2022/09/18 09:59:04;;;;;;;6.63;1.30;;;12.20;99.90;;;;;;5084264;28;20020;-73
2022/09/18 10:01:56;;;;;;;3.67;1.30;;;12.30;99.90;;;;;;5078630;28;20023;-72
2022/09/18 10:04:45;;;;;;;5.55;1.10;;;12.50;99.90;;;;;;5096786;28;20130;-74
2022/09/18 10:07:36;;;;;;;4.68;1.35;;;12.60;99.90;;;;;;5088831;28;20099;-73
2022/09/18 10:10:07;;;;;;;;;;;12.70;99.90;;;;;;5098969;28;20376;-73
2022/09/18 10:12:55;;;;;;;7.15;1.17;;;13.00;99.90;;;;;;5093426;28;19908;-73
2022/09/18 10:15:22;;;;;;;5.82;1.35;;;13.20;99.90;;;;;;5095921;28;20141;-74
2022/09/18 10:17:51;;;;;;;6.13;1.73;;;13.40;99.90;;;;;;5090151;28;20028;-77
2022/09/18 10:20:27;;;;;;;3.58;1.50;;;13.60;99.90;;;;;;5097996;28;20063;-78
2022/09/18 10:22:57;;;;;;;4.10;1.40;;;13.80;99.90;;;;;;5096548;28;20031;-77
2022/09/18 10:25:40;;;;;;;4.18;1.27;;;13.90;99.90;;;;;;5087423;28;20080;-76
2022/09/18 10:28:13;;;;;;;9.15;1.30;;;14.00;99.90;;;;;;5099036;28;20032;-78
2022/09/18 10:30:57;;;;;;;3.17;1.08;;;;;;;;;;5099825;28;20028;-76
2022/09/18 10:33:40;;;;;;;6.50;1.70;;;;;;;;;;5082806;28;20112;-76
2022/09/18 10:36:09;;;;;;;8.98;1.55;;;;;;;;;;5093782;28;20035;-75
2022/09/18 10:38:38;;;;;;;6.68;1.40;;;14.20;99.90;;;;;;5097406;28;20020;-79
2022/09/18 10:41:23;;;;;;;4.57;1.05;;;14.40;99.90;;;;;;5093661;28;20027;-78
2022/09/18 10:44:13;;;;;;;4.18;1.00;;;14.60;99.90;;;;;;5101234;28;20066;-79
2022/09/18 10:46:50;;;;;;;6.00;1.00;;;14.70;99.90;;;;;;5088842;28;20075;-73
2022/09/18 10:49:41;;;;;;;3.10;1.00;;;14.70;99.90;;;;;;5079143;28;20020;-75
2022/09/18 10:52:14;;;;;;;3.80;0.93;;;14.80;99.90;;;;;;5073006;28;20362;-77
2022/09/18 10:54:39;;;;;;;4.50;1.33;;;14.90;99.90;;;;;;5066363;28;20028;-80
2022/09/18 10:57:25;;;;;;;3.15;0.80;;;15.00;99.90;;;;;;5063558;28;20454;-83
2022/09/18 10:59:51;;;;;;;4.57;1.10;;;15.30;99.90;;;;;;5068943;28;20055;-82
2022/09/18 11:02:19;;;;;;;7.03;1.20;;;15.50;99.90;;;;;;5076077;28;20117;-74
2022/09/18 11:04:49;;;;;;;4.03;1.00;;;15.60;99.90;;;;;;5070426;28;20087;-84
2022/09/18 11:07:16;;;;;;;4.38;0.90;;;15.80;99.90;;;;;;5063211;28;20046;-74
2022/09/18 11:09:43;;;;;;;4.50;0.80;;;15.90;99.90;;;;;;5060344;28;20091;-78
2022/09/18 11:12:35;;;;;;;2.22;0.88;;;16.00;99.90;;;;;;5064182;28;20079;-75
2022/09/18 11:15:08;;;;;;;1.85;0.70;;;16.30;99.90;;;;;;5065390;28;20044;-79
2022/09/18 11:17:44;;;;;;;2.17;0.90;;;16.30;99.90;;;;;;5060885;28;20029;-85
2022/09/18 11:20:42;;;;;;;3.60;0.95;;;16.40;99.20;;;;;;5060665;28;20024;-77
2022/09/18 11:23:24;;;;;;;3.95;0.70;;;16.40;99.60;;;;;;5064357;28;20520;-79
2022/09/18 11:26:20;;;;;;;2.63;0.85;;;16.30;99.40;;;;;;5058717;28;20033;-82
2022/09/18 11:29:32;;;;;;;4.80;0.80;;;16.40;99.00;;;;;;5053520;28;20025;-78
2022/09/18 11:32:19;;;;;;;4.95;0.75;;;16.30;98.30;;;;;;5046410;28;20433;-83
2022/09/18 11:34:56;;;;;;;2.13;0.60;;;16.20;98.10;;;;;;5052322;28;20036;-78
2022/09/18 11:37:27;;;;;;;3.10;0.82;;;16.10;98.30;;;;;;5053285;28;20040;-82
2022/09/18 11:39:59;;;;;;;1.02;0.43;;;16.20;98.60;;;;;;5052271;28;20051;-83
2022/09/18 11:42:25;;;;;;;4.03;1.20;;;16.30;98.70;;;;;;5065584;28;20028;-85
2022/09/18 11:44:51;;;;;;;3.72;0.93;;;16.40;98.30;;;;;;5072014;28;20453;-86
2022/09/18 11:47:31;;;;;;;5.40;0.80;;;16.70;97.20;;;;;;5093212;28;20129;-89
2022/09/18 11:50:03;;;;;;;3.67;0.82;;;16.80;97.80;;;;;;5088683;28;20035;-84
2022/09/18 11:52:34;;;;;;;4.95;1.00;;;16.80;97.30;;;;;;5107235;28;20040;-72
2022/09/18 11:55:08;;;;;;;2.08;0.82;;;16.70;97.70;;;;;;5097541;28;20032;-77
2022/09/18 11:57:42;;;;;;;4.45;1.25;;;16.80;97.40;;;;;;5088953;28;20028;-76
2022/09/18 12:00:20;;;;;;;1.58;1.10;;;16.80;96.80;;;;;;5089458;28;20054;-72
2022/09/18 12:03:10;;;;;;;2.72;0.80;;;16.90;96.60;;;;;;5092615;28;20868;-78
2022/09/18 12:05:38;;;;;;;4.95;0.90;;;16.90;96.00;;;;;;5073856;28;20035;-76
2022/09/18 12:08:35;;;;;;;2.00;0.68;;;16.90;96.20;;;;;;5110673;28;20031;-74
2022/09/18 12:11:31;;;;;;;2.30;0.80;;;16.80;96.20;;;;;;5088212;28;20031;-76
2022/09/18 12:14:13;;;;;;;1.73;0.80;;;17.00;95.10;;;;;;5080038;28;20381;-77
2022/09/18 12:16:52;;;;;;;1.67;0.70;;;17.30;95.40;;;;;;5073685;28;20038;-76
2022/09/18 12:19:30;;;;;;;2.92;0.60;;;17.70;94.20;;;;;;5071227;28;20469;-74
2022/09/18 12:22:17;;;;;;;2.15;0.68;;;18.00;93.50;;;;;;5080418;28;20031;-77
2022/09/18 12:24:42;;;;;;;2.53;0.60;;;18.00;92.80;;;;;;5087225;28;20116;-79
2022/09/18 12:27:30;;;;;;;4.22;0.93;;;17.80;92.90;;;;;;5072839;28;20063;-81
2022/09/18 12:30:12;;;;;;;2.08;0.65;;;17.60;92.90;;;;;;5077800;28;20024;-74
2022/09/18 12:32:57;;;;;;;1.35;0.60;;;17.30;92.90;;;;;;5077451;28;20080;-77
2022/09/18 12:35:44;;;;;;;2.08;0.68;;;17.00;93.10;;;;;;5089808;28;20127;-81
2022/09/18 12:38:28;;;;;;;6.97;0.85;;;16.90;93.70;;;;;;5088900;28;20039;-78
2022/09/18 12:41:25;;;;;;;3.35;0.80;;;17.10;93.30;;;;;;5077280;28;20419;-80
2022/09/18 12:44:02;;;;;;;3.92;1.15;;;17.30;91.80;;;;;;5071987;28;20078;-81
2022/09/18 12:46:52;;;;;;;1.65;0.70;;;17.40;90.60;;;;;;5070996;28;20548;-75
2022/09/18 12:49:20;;;;;;;;;;;17.50;90.60;;;;;;5071590;28;20115;-81
2022/09/18 12:51:51;;;;;;;2.70;0.63;;;17.60;90.90;;;;;;5074907;28;19915;-81
2022/09/18 12:54:29;;;;;;;1.95;1.00;;;17.60;90.40;;;;;;5075816;28;20039;-76
2022/09/18 12:57:49;;;;;;;2.08;0.65;;;17.70;90.80;;;;;;5083031;28;20476;-75
2022/09/18 13:00:16;;;;;;;1.23;0.60;;;17.90;90.40;;;;;;5002608;28;20025;-85
2022/09/18 13:02:55;;;;;;;1.23;0.60;;;17.90;90.10;;;;;;5077605;28;20035;-77
2022/09/18 13:05:34;;;;;;;1.87;0.60;;;17.70;89.70;;;;;;5090178;28;20094;-80
2022/09/18 13:08:25;;;;;;;3.13;0.90;;;17.50;90.20;;;;;;5050162;28;20028;-78
2022/09/18 13:10:58;;;;;;;3.30;1.00;;;17.30;89.70;;;;;;5076920;28;20378;-79
2022/09/18 13:13:47;;;;;;;5.63;1.15;;;16.90;90.20;;;;;;5071490;28;20024;-73
2022/09/18 13:16:30;;;;;;;2.90;0.85;;;16.60;90.60;;;;;;5071078;28;20074;-80
2022/09/18 13:19:12;;;;;;;3.05;0.60;;;16.30;91.00;;;;;;5079355;28;20020;-79
2022/09/18 13:21:43;;;;;;;2.92;0.60;;;16.20;91.60;;;;;;5068697;28;20028;-75
2022/09/18 13:24:25;;;;;;;2.15;0.60;;;16.10;91.90;;;;;;5084512;28;20060;-75